Esmeraldas, Brazil
Current Conditions -  °F | °C
As of 6:00 AM on Wednesday 22 Oct 2014 (Local Time) from SBBH Reporting Station
Scattered Clouds Scattered Clouds  
Wind Chill: 66°   Ceiling: Unl
Heat Index: 66°   Visibility: 6mi
Dew Point: 59°   Wind: 10mph
Humidity: 78%   Direction: 100°E
Pressure: 30.09"   Gusts: NA
Location:  19.76°S, 44.31°W
Report Text: SBBH 220800Z 10009KT 9999 SCT023 SCT090 19/15 Q1019
Loading
Personal Weather Stations






























Interactive Weather Map
Tropical Storm Tracking
New forecast layout! Learn more

10-Day Weather Forecast

Advertisements
Track Severe Weather on mobile